AirNav   Everest Fuels
 
 584 users online  

2IN9 Berry Field Airport
New Whiteland, Indiana, USA

GOING TO NEW WHITELAND?


FAA INFORMATION EFFECTIVE 21 MAY 2020

Location

FAA Identifier: 2IN9
Lat/Long: 39-34-00.0000N 086-07-05.0000W
39-34.000000N 086-07.083333W
39.5666667,-86.1180556
(estimated)
Elevation: 795 ft. / 242 m (estimated)
Variation: 03W (1995)
From city: 1 mile W of NEW WHITELAND, IN
Time zone: UTC -4 (UTC -5 during Standard Time)
Zip code: 46184

Airport Operations

Airport use: Private use. Permission required prior to landing
Activation date: 02/1998
Control tower: no
ARTCC: INDIANAPOLIS CENTER
FSS: TERRE HAUTE FLIGHT SERVICE STATION
Attendance: UNATNDD
Wind indicator: yes
Segmented circle: no

Airport Communications

WX AWOS-3P at HFY (4 nm N): 118.525 (317-882-5862)
WX AWOS-3 at 8A4 (12 nm N): 118.250 (317-955-3160)
WX ASOS at IND (12 nm NW): PHONE 317-241-0348
WX AWOS-3 at HBE (14 nm S): 119.675 (812-526-1745)
WX ASOS at GEZ (15 nm E): 121.55 (317-398-0246)
WX ASOS at EYE (18 nm NW): 121.575 (317-329-1754)
WX AWOS-3 at MQJ (19 nm NE): 124.175 (317-335-3037)
WX AWOS-3P at 2R2 (20 nm NW): 118.025 (317-718-4872)

Nearby radio navigation aids

VOR radial/distance  VOR name  Freq  Var
SHBr253/14.1SHELBYVILLE VOR/DME112.0001E
VHPr141/18.8BRICKYARD VORTAC116.3001E
OOMr044/34.2HOOSIER VORTAC110.2002W

 
NDB name  Hdg/Dist  Freq  Var  ID
METROPOLITAN191/22.533803WUMP ..- -- .--.

Airport Services

Runway Information

Runway 10/28

Dimensions: 1300 x 50 ft. / 396 x 15 m
Surface: turf
RUNWAY 10  RUNWAY 28
Traffic pattern: leftright
Obstructions: 50 ft. trees, 600 ft. from runway25 ft. bldg, 1700 ft. from runway

Airport Ownership and Management from official FAA records

Ownership: Privately-owned
Owner: MARK H. BERRY
24843 GUN SMOKE DR
LAND O LAKES, FL 34639-9557
Phone 317-345-6261
Manager: MARK H. BERRY
24843 GUN SMOKE DR
LAND O LAKES, FL 34639-9557
Phone 317-345-6261

Airport Operational Statistics

Aircraft based on the field: 1
Single engine airplanes: 1
    

Additional Remarks

FOR CD CTC INDIANAPOLIS APCH AT 317-227-5743.

Instrument Procedures

There are no published instrument procedures at 2IN9.

Some nearby airports with instrument procedures:

KHFY - Indy South Greenwood Airport (4 nm N)
8A4 - Indianapolis Downtown Heliport (12 nm N)
KIND - Indianapolis International Airport (12 nm NW)
KGEZ - Shelbyville Municipal Airport (15 nm E)
KEYE - Eagle Creek Airpark (18 nm NW)
KMQJ - Indianapolis Regional Airport (19 nm NE)
2R2 - Hendricks County Airport-Gordon Graham Field (20 nm NW)
 
Loc | Ops | Rwys | IFR | FBO | Links
Com | Nav | Svcs | Stats | Notes
Area around 2IN9 (Berry Field Airport)
 
Road maps at: MapQuest Bing Google
 
Aerial photo
No photo
 
Sectional chart

 
Airport distance calculator
Flying to Berry Field Airport? Find the distance to fly.

From to 2IN9

Sunrise and sunset
Times for 04-Jun-2020
 Local
(UTC-4)
 Zulu
(UTC)
Morning civil twilight05:4609:46
Sunrise06:1910:19
Sunset21:0701:07
Evening civil twilight21:3901:39

Current date and time
Zulu (UTC)  04-Jun-2020 05:17:12
Local (UTC-4)  04-Jun-2020 01:17:12
 
METAR
KHFY 
4nm N 
032350Z AUTO 25005KT 10SM SCT070 BKN120 29/18 A2982 RMK AO2 6//// T02910179
KIND 
12nm NW 
040454Z 31006KT 8SM -TSRA SCT045CB SCT070 BKN110 OVC250 23/19 A2983 RMK AO2 LTG DSNT W RAB0358 TSB23 SLP095 FRQ LTGICCG OHD TS OHD MOV SE P0002 T02280194 403110200 $
KGEZ 
15nm E 
040453Z AUTO 17008KT 10SM FEW100 FEW120 25/18 A2981 RMK AO2 LTG DSNT W RAB31E50 SLP087 P0000 T02500178 403280200 $
KEYE 
18nm NW 
040453Z AUTO 21004KT 8SM VCTS -RA FEW080 BKN110 23/19 A2982 RMK AO2 LTG DSNT SW-NW SLP090 P0000 T02280194 403170211
KMQJ 
19nm NE 
040456Z AUTO 17003KT 10SM SCT090 SCT120 21/21 A2983 RMK AO1
TAF
KIND 
12nm NW 
040232Z 0403/0506 02007KT P6SM SCT050 BKN090 FM040500 06005KT P6SM VCTS SCT050CB OVC100 FM041100 23005KT P6SM BKN100 FM041600 24007KT P6SM VCTS BKN050CB FM041800 24008KT P6SM SCT050 BKN100 FM050000 VRB04KT P6SM SCT050 BKN080
NOTAMs
Click for the latest NOTAMs
NOTAMs are issued by the DoD/FAA and will open in a separate window not controlled by AirNav.

 

 
 

Would you like to see your business listed on this page?

 If your business provides an interesting product or service to pilots, flight crews, aircraft, or users of the Berry Field Airport, you should consider listing it here.  To start the listing process, click on the button below
 
Add a business
 

Other Pages about Berry Field Airport

Update a link
 
Copyright © AirNav, LLC. All rights reserved. Privacy Policy  Contact